Aviation Digital Data Service (ADDS)

Output produced by METARs form (1528 UTC 24 August 2019)
found at http://www.aviationweather.gov/metar/data/
 
LECO 241500Z 02008KT 310V060 9999 FEW028 21/15 Q1019 NOSIG
TAF LECO 241400Z 2415/2515 02009KT 9999 BKN025 TX24/2513Z TN15/2503Z 
     PROB40 
     TEMPO 2421/2509 3000 BCFG BKN010 
     PROB40 
     TEMPO 2421/2509 1400 BCFG BKN003 
     PROB30 
     TEMPO 2421/2509 TS SCT020CB
       
LEAB 241500Z 04008KT 340V130 CAVOK 32/04 Q1019 NOSIG
TAF LEAB 241400Z 2415/2424 12007KT CAVOK
       
LERI 241500Z 09005KT 030V160 9999 FEW060 32/17 Q1017 NOSIG
TAF LERI 241400Z 2415/2424 09008KT CAVOK
       
LEAL 241500Z 09010KT 050V140 9999 FEW020 28/21 Q1018 NOSIG
TAF LEAL 241100Z 2412/2512 09010KT 9999 FEW020 TX30/2412Z TN20/2506Z 
     BECMG 2418/2420 VRB03KT 
     BECMG 2422/2424 32007KT 
     BECMG 2507/2509 08010KT
       
LEAM 241500Z 11015KT 070V140 9999 FEW040 32/17 Q1016
TAF LEAM 241400Z 2415/2515 09014KT CAVOK TX33/2415Z TN21/2506Z 
     BECMG 2420/2423 02006KT 
     BECMG 2507/2510 08014KT
       
LEAS 241500Z 34006KT 300V050 9000 BKN018 20/16 Q1020 NOSIG
TAF LEAS 241400Z 2415/2515 30009KT 8000 BKN012 TX22/2513Z TN15/2501Z 
     TEMPO 2415/2421 BKN020 
     TEMPO 2421/2509 3000 BR BKN005 
     TEMPO 2512/2515 07010KT BKN020 
     PROB40 
     TEMPO 2509/2515 3000 SHRA TS SCT025CB
       
LEMD 241500Z 20003KT CAVOK 34/05 Q1018 NOSIG
TAF LEMD 241100Z 2412/2518 VRB05KT CAVOK TX35/2416Z TN18/2505Z 
     PROB30 
     TEMPO 2412/2418 20010KT 
     PROB40 
     TEMPO 2500/2509 14010KT 
     TEMPO 2503/2507 03006KT 
     BECMG 2510/2511 18010KT 
     PROB30 
     TEMPO 2513/2518 18012G22KT FEW040TCU
       
LEBL 241500Z 19008KT 160V230 CAVOK 27/20 Q1018 NOSIG
TAF LEBL 241100Z 2412/2512 18010KT 9999 FEW030 TX29/2412Z TN23/2505Z 
     BECMG 2418/2421 34004KT 
     BECMG 2509/2511 19010KT
       
LEBB 241500Z 31011KT 280V340 9999 FEW018 BKN021 23/19 Q1019 NOSIG
TAF LEBB 241100Z 2412/2512 32010KT 9999 FEW015 TX27/2412Z TN17/2501Z 
     TEMPO 2500/2512 3000 BR OVC010
       
LEBG 241500Z 21007KT 170V260 CAVOK 31/02 Q1020
TAF LEBG 241400Z 2415/2424 28008KT CAVOK 
     BECMG 2417/2419 06014KT
       
LEBA 241500Z 24003KT CAVOK 37/11 Q1014
TAF LEBA 241400Z 2415/2424 25008KT CAVOK
       
LEVS 241500Z VRB04KT CAVOK 34/05 Q1019
TAF LEVS 241400Z 2415/2424 VRB05KT CAVOK 
     PROB30 
     TEMPO 2415/2419 18010KT
       
GCFV 241500Z 03012KT 9000 FEW020 25/21 Q1013
TAF GCFV 241400Z 2415/2515 05014KT 8000 NSC TX30/2514Z TN24/2505Z
       
LEGT 241500Z VRB05KT CAVOK 34/06 Q1018
TAF LEGT 241400Z 2415/2424 VRB05KT CAVOK 
     PROB30 
     TEMPO 2415/2419 19010KT
       
LEGE 241500Z 18013KT 150V210 CAVOK 29/18 Q1018
TAF LEGE 241100Z 2412/2512 17012KT 9999 FEW040 TX32/2413Z TN17/2506Z 
     BECMG 2419/2421 18004KT 
     BECMG 2510/2512 17010KT
       
GCLP 241500Z 02025KT 9999 FEW025 28/21 Q1012 NOSIG
TAF GCLP 241400Z 2415/2515 02026KT 9999 FEW020 TX30/2514Z TN25/2505Z 
     PROB30 
     TEMPO 2415/2424 02026G36KT
       
LEGR 241500Z 13010KT 090V170 9999 FEW080 35/12 Q1017
TAF LEGR 241400Z 2415/2515 14006KT CAVOK TX36/2415Z TN17/2506Z 
     TEMPO 2416/2420 20010KT
       
GCHI 241500Z 33020KT 310V010 9999 FEW025 26/21 Q1014
TAF GCHI 241400Z 2415/2515 34022KT 9999 FEW025 TX28/2514Z TN23/2505Z 
     PROB40 
     TEMPO 2417/2506 35023G33KT
       
LEIB 241500Z 09007KT 040V140 9999 FEW024 FEW025TCU SCT028 28/21 Q1018 NOSIG
TAF LEIB 241400Z 2415/2515 10007KT 9999 FEW020 TX29/2512Z TN21/2505Z 
     TEMPO 2415/2417 FEW025TCU 
     BECMG 2419/2421 VRB04KT 
     TEMPO 2502/2508 BKN014 
     PROB30 
     TEMPO 2500/2506 4000 BR 
     BECMG 2507/2509 09010KT
       
LEJR 241500Z 17008KT 100V210 CAVOK 35/12 Q1014
TAF LEJR 241100Z 2412/2512 16009KT CAVOK TX36/2414Z TN18/2506Z 
     PROB40 
     TEMPO 2416/2420 23010KT
       
GCGM 241500Z 23008KT CAVOK 27/19 Q1014 RMK R09/22003KT 190V280 ARP/24005KT 120V280
TAF GCGM 241400Z 2415/2515 22006KT CAVOK TX29/2514Z TN24/2505Z
       
GCLA 241500Z 03015KT 360V060 9999 FEW020 26/21 Q1015
TAF GCLA 241400Z 2415/2515 03014KT 9999 FEW025 TX30/2514Z TN25/2505Z
       
GCRR 241500Z 01012KT 330V050 9999 FEW018 35/19 Q1012
TAF GCRR 241400Z 2415/2515 36013KT 9000 NSC TX32/2514Z TN23/2505Z 
     BECMG 2416/2417 36024KT 
     PROB40 
     TEMPO 2417/2423 35025G35KT
       
LELN 241500Z 22007KT 160V280 CAVOK 30/06 Q1019
TAF LELN 241400Z 2415/2424 21010KT 9999 FEW045 
     PROB30 
     TEMPO 2415/2420 FEW040TCU 
     BECMG 2416/2417 29010KT 
     BECMG 2420/2421 03008KT
       
LEMG 241500Z 13008KT 080V180 9999 FEW030 27/20 Q1017 NOSIG
TAF LEMG 241100Z 2412/2512 13009KT 9999 FEW025 TX28/2413Z TN22/2502Z 
     BECMG 2420/2423 29004KT 
     PROB40 
     TEMPO 2501/2508 BKN014 
     BECMG 2507/2509 12009KT
       
GEML 241500Z 07008KT 020V120 9999 BKN017 28/20 Q1017
TAF GEML 241400Z 2415/2515 09009KT 9999 SCT015 TX29/2514Z TN24/2505Z 
     PROB30 
     TEMPO 2415/2420 BKN014 
     TEMPO 2420/2512 BKN010
       
LEMH 241500Z 05010KT 010V100 9999 FEW025 28/21 Q1018
TAF LEMH 241400Z 2415/2515 06010KT 9999 FEW025 TX29/2512Z TN20/2505Z 
     BECMG 2418/2420 03004KT 
     BECMG 2507/2509 05010KT
       
LEMO 241500Z VRB04KT CAVOK 36/08 Q1014 NOSIG
TAF LEMO 241400Z 2415/2424 25008KT CAVOK
       
LEPP 241500Z 28002KT 9999 FEW030 34/06 Q1018
TAF LEPP 241400Z 2415/2515 VRB03KT CAVOK TX35/2416Z TN19/2506Z 
     BECMG 2416/2420 33010KT 
     BECMG 2500/2502 VRB03KT 
     TEMPO 2510/2515 18010KT
       
LERS 241500Z 19006KT 140V230 CAVOK 30/18 Q1018
TAF LERS 241400Z 2415/2515 16008KT 9999 FEW040 TX30/2513Z TN20/2505Z 
     BECMG 2418/2420 VRB03KT 
     BECMG 2508/2510 18010KT
       
LERT 241500Z 26012KT CAVOK 29/19 Q1015 NOSIG
TAF LERT 241400Z 2415/2424 27008KT CAVOK
       
LESA 241500Z 09008KT 040V140 9999 FEW047 33/06 Q1019
TAF LESA 241100Z 2412/2512 VRB05KT CAVOK TX34/2416Z TN12/2506Z 
     PROB40 
     TEMPO 2412/2419 29010KT 
     PROB30 
     TEMPO 2414/2419 FEW040TCU 
     PROB40 
     TEMPO 2509/2512 SHRA FEW035TCU
       
LESO 241500Z 30009KT 250V350 9999 FEW010 BKN017 24/21 Q1018
TAF LESO 241100Z 2412/2512 33008KT 9999 FEW015 TX31/2412Z TN19/2506Z 
     TEMPO 2420/2512 3000 BR BKN010
       
LEXJ 241500Z 29008KT 250V320 9999 OVC018 22/18 Q1019
TAF LEXJ 241400Z 2415/2515 28010KT 9999 BKN020 TX23/2415Z TN17/2503Z 
     PROB40 
     TEMPO 2415/2515 BKN014 
     BECMG 2418/2420 21005KT 
     PROB30 
     TEMPO 2420/2509 3000 BR BKN010 
     TEMPO 2512/2515 02010KT
       
LEST 241500Z 36007KT 290V040 CAVOK 25/16 Q1019 NOSIG
TAF LEST 241100Z 2412/2512 36007KT 9999 FEW010 TX26/2414Z TN13/2506Z 
     TEMPO 2421/2509 3000 BR BKN010 
     PROB40 
     TEMPO 2421/2509 0350 FG VV001
       
LESU 241500Z 22008KT 200V260 9999 SCT060 30/11 Q1020
TAF LESU 241400Z 2415/2515 21008KT 9999 FEW050 TX30/2514Z TN13/2505Z 
     BECMG 2419/2421 VRB03KT 
     BECMG 2511/2513 21010KT
       
LEZL 241500Z 28005KT CAVOK 36/07 Q1014 NOSIG
TAF LEZL 241400Z 2415/2515 15004KT CAVOK TX37/2415Z TN21/2506Z 
     BECMG 2415/2418 23010KT 
     BECMG 2501/2504 04004KT 
     BECMG 2512/2515 23010KT
       
LESB 241500Z AUTO 21011KT CAVOK 28/21 Q1018
LEBZ 241500Z 02004KT 9999 FEW045 36/11 Q1014
TAF LEBZ 241100Z 2412/2512 VRB02KT 9999 FEW040 TX38/2415Z TN21/2506Z 
     BECMG 2419/2422 26010KT
       
GCXO 241500Z 10005KT 020V160 CAVOK 33/13 Q1017 NOSIG
TAF GCXO 241400Z 2415/2515 28010KT 9999 FEW004 TX28/2514Z TN19/2505Z 
     TEMPO 2423/2508 VRB03KT 
     PROB30 
     TEMPO 2415/2418 3000 BCFG
       
GCTS 241500Z 23011KT CAVOK 27/21 Q1013 WS R25 NOSIG
TAF GCTS 241400Z 2415/2515 07020KT CAVOK TX32/2514Z TN24/2505Z 
     PROB40 
     TEMPO 2415/2419 21007KT 
     PROB40 
     TEMPO 2419/2423 VRB05KT
       
LETO 241500Z 20004KT 110V260 CAVOK 35/02 Q1018 NOSIG
TAF LETO 241100Z 2412/2512 VRB05KT CAVOK TX35/2416Z TN17/2505Z 
     PROB30 
     TEMPO 2412/2418 20008KT 
     PROB40 
     TEMPO 2500/2509 14010KT 
     TEMPO 2503/2507 03006KT 
     BECMG 2510/2511 18010KT
       
LEVC 241500Z 11009KT 070V150 9999 FEW045 30/18 Q1018 NOSIG
TAF LEVC 241100Z 2412/2512 10010KT 9999 FEW030 TX31/2412Z TN18/2506Z 
     BECMG 2419/2421 30004KT 
     BECMG 2509/2511 11010KT
       
LEVD 241500Z 32007KT 280V020 CAVOK 32/04 Q1019
TAF LEVD 241100Z 2412/2512 VRB05KT CAVOK TX34/2416Z TN15/2506Z 
     PROB40 
     TEMPO 2413/2418 25007KT 
     PROB30 
     TEMPO 2414/2419 FEW040TCU 
     PROB40 
     TEMPO 2422/2506 01008KT
       
LEVX 241500Z 26012KT 230V290 CAVOK 22/16 Q1019 NOSIG
TAF LEVX 241100Z 2412/2512 27006KT 9999 FEW020 TX23/2413Z TN15/2506Z 
     PROB40 
     TEMPO 2500/2509 3000 BCFG BKN010 
     PROB40 
     TEMPO 2500/2509 0350 FG VV001
       
LEVT 241500Z 31004KT 9999 FEW035 34/08 Q1018
TAF LEVT 241100Z 2412/2512 VRB03KT CAVOK TX35/2414Z TN15/2506Z 
     BECMG 2412/2416 02012KT 
     TEMPO 2414/2417 02015G25KT 
     BECMG 2419/2422 VRB05KT 
     PROB40 
     TEMPO 2422/2508 3000 BR BKN005
       
LEZG 241500Z 07006KT 030V110 CAVOK 34/08 Q1017
TAF LEZG 241100Z 2412/2512 11008KT 9999 FEW050 TX33/2415Z TN18/2506Z